sensor_id;sensor_type;location;lat;lon;timestamp;pressure;altitude;pressure_sealevel;temperature;humidity
7754;BME280;3921;42.266;23.122;2022-08-14T04:52:07;94692.09;;;18.59;77.69
7754;BME280;3921;42.266;23.122;2022-08-14T04:54:37;94748.50;;;19.02;77.73
7754;BME280;3921;42.266;23.122;2022-08-14T04:57:08;95064.19;;;20.92;78.35
7754;BME280;3921;42.266;23.122;2022-08-14T18:08:59;94904.72;;;23.25;65.03
7754;BME280;3921;42.266;23.122;2022-08-14T18:32:43;94834.66;;;22.72;65.59
7754;BME280;3921;42.266;23.122;2022-08-14T18:35:12;94721.50;;;21.86;65.47
7754;BME280;3921;42.266;23.122;2022-08-14T18:37:41;94503.03;;;20.55;65.78
7754;BME280;3921;42.266;23.122;2022-08-14T18:43:41;94934.84;;;23.21;65.58
7754;BME280;3921;42.266;23.122;2022-08-14T18:46:23;94546.59;;;20.66;65.83
7754;BME280;3921;42.266;23.122;2022-08-14T18:49:12;94925.47;;;23.08;65.71
7754;BME280;3921;42.266;23.122;2022-08-14T18:51:39;94930.00;;;23.17;65.85
7754;BME280;3921;42.266;23.122;2022-08-14T19:27:44;94542.94;;;20.41;68.13
7754;BME280;3921;42.266;23.122;2022-08-14T19:41:01;94533.63;;;20.26;68.07
7754;BME280;3921;42.266;23.122;2022-08-14T20:22:41;94684.53;;;20.79;68.13
7754;BME280;3921;42.266;23.122;2022-08-14T20:25:38;94485.38;;;19.65;68.28
7754;BME280;3921;42.266;23.122;2022-08-14T20:40:20;94623.81;;;20.25;67.93
7754;BME280;3921;42.266;23.122;2022-08-14T20:42:55;94512.78;;;19.75;67.45
7754;BME280;3921;42.266;23.122;2022-08-14T20:45:42;94588.97;;;20.10;67.59
7754;BME280;3921;42.266;23.122;2022-08-14T20:48:30;94878.31;;;21.72;67.69
7754;BME280;3921;42.266;23.122;2022-08-14T20:59:48;94719.91;;;20.85;68.47
7754;BME280;3921;42.266;23.122;2022-08-14T21:05:19;94513.25;;;19.52;67.87
7754;BME280;3921;42.266;23.122;2022-08-14T21:08:04;94901.97;;;21.90;68.67
7754;BME280;3921;42.266;23.122;2022-08-14T21:10:40;94593.72;;;20.02;68.38
7754;BME280;3921;42.266;23.122;2022-08-14T21:13:38;94527.63;;;19.53;69.07
7754;BME280;3921;42.266;23.122;2022-08-14T21:55:17;94726.03;;;20.52;69.03
7754;BME280;3921;42.266;23.122;2022-08-14T21:57:55;94596.88;;;19.91;69.24
7754;BME280;3921;42.266;23.122;2022-08-14T22:03:09;94960.75;;;22.20;69.02
7754;BME280;3921;42.266;23.122;2022-08-14T22:05:39;94727.56;;;20.71;68.78
7754;BME280;3921;42.266;23.122;2022-08-14T22:08:08;94540.63;;;19.32;68.73
7754;BME280;3921;42.266;23.122;2022-08-14T22:10:44;94613.53;;;19.97;69.28
7754;BME280;3921;42.266;23.122;2022-08-14T22:13:18;94587.44;;;19.77;69.37
7754;BME280;3921;42.266;23.122;2022-08-14T22:15:49;94723.78;;;20.62;69.39
7754;BME280;3921;42.266;23.122;2022-08-14T22:18:21;95009.47;;;22.33;69.15
7754;BME280;3921;42.266;23.122;2022-08-14T22:20:52;94658.50;;;20.13;69.18
7754;BME280;3921;42.266;23.122;2022-08-14T22:23:33;94576.59;;;19.58;69.55
7754;BME280;3921;42.266;23.122;2022-08-14T22:29:42;94563.97;;;19.41;69.32
7754;BME280;3921;42.266;23.122;2022-08-14T22:32:12;94746.19;;;20.57;69.22
7754;BME280;3921;42.266;23.122;2022-08-14T22:45:19;94592.84;;;19.55;68.84
7754;BME280;3921;42.266;23.122;2022-08-14T22:47:57;94656.78;;;19.98;68.90
7754;BME280;3921;42.266;23.122;2022-08-14T22:50:25;94788.53;;;20.75;68.81
7754;BME280;3921;42.266;23.122;2022-08-14T22:53:00;94930.72;;;21.65;68.36
7754;BME280;3921;42.266;23.122;2022-08-14T22:55:28;94671.28;;;19.98;68.11
7754;BME280;3921;42.266;23.122;2022-08-14T22:57:58;94538.84;;;19.19;68.01
7754;BME280;3921;42.266;23.122;2022-08-14T23:00:28;94813.19;;;20.76;68.42
7754;BME280;3921;42.266;23.122;2022-08-14T23:03:08;94868.38;;;21.23;67.82
7754;BME280;3921;42.266;23.122;2022-08-14T23:05:44;94951.94;;;21.81;67.90
7754;BME280;3921;42.266;23.122;2022-08-14T23:08:12;94609.97;;;19.69;68.56
7754;BME280;3921;42.266;23.122;2022-08-14T23:10:40;94582.19;;;19.49;68.64
7754;BME280;3921;42.266;23.122;2022-08-14T23:13:07;94600.78;;;19.51;68.65
7754;BME280;3921;42.266;23.122;2022-08-14T23:15:47;94619.75;;;19.61;69.04
7754;BME280;3921;42.266;23.122;2022-08-14T23:18:14;94751.47;;;20.54;69.26
7754;BME280;3921;42.266;23.122;2022-08-14T23:20:44;94600.28;;;19.60;69.79
7754;BME280;3921;42.266;23.122;2022-08-14T23:23:16;94703.03;;;20.22;69.45
7754;BME280;3921;42.266;23.122;2022-08-14T23:25:54;94829.38;;;21.05;69.94
7754;BME280;3921;42.266;23.122;2022-08-14T23:28:21;94682.03;;;20.03;69.82
7754;BME280;3921;42.266;23.122;2022-08-14T23:30:53;94656.56;;;19.87;70.16
7754;BME280;3921;42.266;23.122;2022-08-14T23:33:20;94851.84;;;21.14;70.48
7754;BME280;3921;42.266;23.122;2022-08-14T23:35:47;94711.84;;;20.16;70.48
7754;BME280;3921;42.266;23.122;2022-08-14T23:38:19;94525.06;;;19.07;70.35
7754;BME280;3921;42.266;23.122;2022-08-14T23:43:24;94724.25;;;20.38;70.78
7754;BME280;3921;42.266;23.122;2022-08-14T23:55:31;94711.22;;;20.13;70.42
